Time;durP1;ratioP1;P1;durP2;ratioP2;P2;SDS_P1;SDS_P2;PMS_P1;PMS_P2;Temp;Humidity;BMP_temperature;BMP_pressure;BME280_temperature;BME280_humidity;BME280_pressure;Samples;Min_cycle;Max_cycle;Signal;HPM_P1;HPM_P2
2023/01/06 00:00:20;;;;;;;86.53;42.35;;;8.70;99.90;;;;;;5074860;28;20039;-77
2023/01/06 00:02:47;;;;;;;70.68;37.45;;;8.70;99.90;;;;;;5075454;28;20524;-79
2023/01/06 00:05:13;;;;;;;68.65;35.35;;;8.70;99.90;;;;;;5072971;28;20025;-75
2023/01/06 00:07:39;;;;;;;56.92;32.08;;;8.70;99.90;;;;;;5075775;28;20048;-76
2023/01/06 00:10:06;;;;;;;69.68;36.35;;;8.70;99.90;;;;;;5075799;28;20028;-76
2023/01/06 00:12:32;;;;;;;73.20;35.35;;;8.60;99.90;;;;;;5075529;28;20078;-76
2023/01/06 00:14:58;;;;;;;68.63;35.75;;;8.70;99.90;;;;;;5074463;28;20020;-76
2023/01/06 00:17:24;;;;;;;92.40;41.17;;;8.70;99.90;;;;;;5075972;28;20016;-78
2023/01/06 00:19:50;;;;;;;91.45;44.47;;;8.70;99.90;;;;;;5075408;28;20048;-77
2023/01/06 00:22:16;;;;;;;76.40;37.70;;;8.70;99.90;;;;;;5075327;28;20063;-78
2023/01/06 00:24:42;;;;;;;72.95;36.42;;;8.60;99.90;;;;;;5074320;28;20119;-78
2023/01/06 00:27:08;;;;;;;64.20;34.05;;;8.60;99.90;;;;;;5075454;28;20423;-76
2023/01/06 00:29:34;;;;;;;81.70;37.92;;;8.50;99.90;;;;;;5075751;28;20055;-79
2023/01/06 00:32:01;;;;;;;83.10;39.67;;;8.40;99.90;;;;;;5075516;28;20074;-78
2023/01/06 00:34:27;;;;;;;73.55;36.90;;;8.40;99.90;;;;;;5076176;28;20029;-78
2023/01/06 00:36:53;;;;;;;79.53;38.47;;;8.30;99.90;;;;;;5073813;28;20024;-77
2023/01/06 00:39:19;;;;;;;87.35;44.28;;;8.30;99.90;;;;;;5087887;28;20080;-77
2023/01/06 00:42:03;;;;;;;91.53;45.80;;;8.20;99.90;;;;;;5073997;28;20032;-76
2023/01/06 00:44:34;;;;;;;128.48;63.08;;;8.20;99.90;;;;;;5077772;28;20021;-76
2023/01/06 00:47:00;;;;;;;154.15;69.80;;;8.10;99.90;;;;;;5075012;28;20024;-75
2023/01/06 00:49:25;;;;;;;115.75;56.00;;;8.00;99.90;;;;;;5073814;28;20386;-76
2023/01/06 00:51:52;;;;;;;88.70;41.50;;;8.00;99.90;;;;;;5075272;28;20150;-75
2023/01/06 00:54:18;;;;;;;85.07;38.83;;;8.10;99.90;;;;;;5073824;28;20024;-76
2023/01/06 00:56:46;;;;;;;83.78;38.72;;;8.20;99.90;;;;;;5074926;28;20024;-75
2023/01/06 00:59:14;;;;;;;79.57;36.13;;;8.30;99.90;;;;;;5074991;28;20016;-75
2023/01/06 01:01:41;;;;;;;67.15;31.75;;;8.40;99.90;;;;;;5074578;28;20044;-75
2023/01/06 01:04:08;;;;;;;70.07;32.25;;;8.40;99.90;;;;;;5082302;28;20032;-75
2023/01/06 01:06:35;;;;;;;53.05;27.20;;;8.50;99.90;;;;;;5095591;28;20016;-75
2023/01/06 01:09:02;;;;;;;72.65;32.20;;;8.60;99.90;;;;;;5095102;28;20047;-76
2023/01/06 01:14:13;;;;;;;75.90;34.13;;;8.70;99.90;;;;;;5087902;28;20024;-75
2023/01/06 01:16:39;;;;;;;74.53;31.40;;;8.70;99.90;;;;;;5074493;28;20116;-76
2023/01/06 01:19:06;;;;;;;69.40;32.85;;;8.70;99.90;;;;;;5072881;28;20084;-76
2023/01/06 01:21:32;;;;;;;83.53;36.40;;;8.70;99.90;;;;;;5079834;28;20051;-76
2023/01/06 01:23:57;;;;;;;64.15;32.53;;;8.60;99.90;;;;;;5081478;28;20075;-76
2023/01/06 01:26:23;;;;;;;57.85;27.05;;;8.50;99.90;;;;;;5084999;28;20031;-75
2023/01/06 01:28:49;;;;;;;55.05;26.40;;;8.50;99.90;;;;;;5093456;28;20081;-76
2023/01/06 01:31:15;;;;;;;56.35;26.60;;;8.50;99.90;;;;;;5094282;28;20670;-76
2023/01/06 01:33:42;;;;;;;51.15;23.70;;;8.50;99.90;;;;;;5094711;28;20067;-76
2023/01/06 01:36:10;;;;;;;55.38;26.48;;;8.50;99.90;;;;;;5094564;28;20024;-75
2023/01/06 01:38:36;;;;;;;64.15;27.75;;;8.50;99.90;;;;;;5094215;28;20024;-76
2023/01/06 01:41:02;;;;;;;70.20;29.27;;;8.40;99.90;;;;;;5093226;28;20039;-75
2023/01/06 01:43:53;;;;;;;95.28;35.50;;;8.40;99.90;;;;;;5093102;28;20370;-76
2023/01/06 01:46:21;;;;;;;78.85;33.40;;;8.30;99.90;;;;;;5094611;28;20024;-77
2023/01/06 01:48:48;;;;;;;68.88;31.20;;;8.20;99.90;;;;;;5094346;28;20016;-76
2023/01/06 01:51:18;;;;;;;76.07;33.08;;;8.20;99.90;;;;;;5094380;28;20016;-76
2023/01/06 01:53:48;;;;;;;111.80;42.42;;;8.10;99.90;;;;;;5093970;28;20020;-76
2023/01/06 01:56:20;;;;;;;65.18;28.55;;;8.00;99.90;;;;;;5092607;28;20030;-78
2023/01/06 01:58:52;;;;;;;73.30;27.88;;;8.10;99.90;;;;;;5092892;28;20073;-76
2023/01/06 02:01:18;;;;;;;61.75;24.33;;;8.20;99.90;;;;;;5077275;28;20526;-75
2023/01/06 02:03:44;;;;;;;55.42;21.15;;;8.30;99.90;;;;;;5071661;28;20054;-75
2023/01/06 02:06:15;;;;;;;46.55;20.17;;;8.40;99.90;;;;;;5073103;28;20028;-76
2023/01/06 02:09:19;;;;;;;49.65;22.20;;;8.30;99.90;;;;;;5073317;28;20462;-76
2023/01/06 02:11:47;;;;;;;51.03;21.63;;;8.10;99.90;;;;;;5054258;28;20180;-77
2023/01/06 02:14:17;;;;;;;73.63;31.13;;;8.00;99.90;;;;;;5071536;28;20506;-76
2023/01/06 02:16:57;;;;;;;94.00;40.60;;;7.90;99.90;;;;;;5072849;28;20082;-75
2023/01/06 02:19:34;;;;;;;67.53;28.90;;;7.70;99.90;;;;;;5072912;28;20033;-76
2023/01/06 02:22:31;;;;;;;72.05;32.95;;;7.60;99.90;;;;;;5072504;28;20104;-75
2023/01/06 02:25:06;;;;;;;85.72;37.35;;;7.50;99.90;;;;;;5071101;28;20425;-75
2023/01/06 02:28:09;;;;;;;80.03;39.10;;;7.40;99.90;;;;;;5072758;28;20082;-75
2023/01/06 02:30:50;;;;;;;65.90;29.23;;;7.20;99.90;;;;;;5073027;28;20456;-76
2023/01/06 02:33:31;;;;;;;74.90;33.00;;;7.10;99.90;;;;;;5072756;28;20032;-75
2023/01/06 02:36:22;;;;;;;59.38;24.55;;;7.00;99.90;;;;;;5071519;28;20028;-76
2023/01/06 02:39:23;;;;;;;79.45;32.58;;;6.90;99.90;;;;;;5067275;28;20024;-75
2023/01/06 02:42:27;;;;;;;74.78;33.53;;;6.80;99.90;;;;;;5068208;28;20040;-75
2023/01/06 02:45:34;;;;;;;80.20;33.05;;;6.80;99.90;;;;;;5070260;28;20023;-76
2023/01/06 02:48:02;;;;;;;73.65;33.45;;;6.70;99.90;;;;;;5049993;28;20848;-76
2023/01/06 02:50:43;;;;;;;67.22;31.40;;;6.60;99.90;;;;;;5045068;28;20063;-75
2023/01/06 02:53:29;;;;;;;68.80;30.02;;;6.60;99.90;;;;;;5031239;28;19908;-75
2023/01/06 02:55:56;;;;;;;70.50;31.73;;;6.50;99.90;;;;;;5014537;28;20022;-76
2023/01/06 02:58:58;;;;;;;78.35;33.10;;;6.50;99.90;;;;;;5031342;28;20072;-76
2023/01/06 03:01:24;;;;;;;72.55;33.35;;;6.50;99.90;;;;;;5023293;28;20030;-76
2023/01/06 03:03:52;;;;;;;67.10;31.77;;;6.40;99.90;;;;;;5004303;28;20069;-76
2023/01/06 03:06:24;;;;;;;83.63;35.05;;;6.40;99.90;;;;;;5020434;28;20056;-76
2023/01/06 03:08:52;;;;;;;77.75;37.20;;;6.40;99.90;;;;;;5010481;28;20072;-76
2023/01/06 03:11:18;;;;;;;91.20;40.22;;;6.40;99.90;;;;;;5027344;28;20470;-77
2023/01/06 03:13:54;;;;;;;103.53;44.35;;;6.30;99.90;;;;;;5023028;28;20116;-76
2023/01/06 03:16:20;;;;;;;96.55;42.60;;;6.30;99.90;;;;;;5026690;28;20420;-76
2023/01/06 03:18:49;;;;;;;96.13;44.53;;;6.20;99.90;;;;;;5027049;28;20037;-76
2023/01/06 03:21:20;;;;;;;96.43;43.42;;;6.20;99.90;;;;;;5025700;28;20029;-75
2023/01/06 03:23:46;;;;;;;82.50;39.60;;;6.10;99.90;;;;;;5010319;28;20052;-76
2023/01/06 03:26:12;;;;;;;88.07;41.28;;;6.10;99.90;;;;;;5055810;28;20013;-76
2023/01/06 03:28:38;;;;;;;90.68;41.35;;;6.00;99.90;;;;;;5056057;28;19926;-75
2023/01/06 03:31:21;;;;;;;97.60;45.67;;;6.00;99.90;;;;;;5054413;28;20029;-75
2023/01/06 03:33:50;;;;;;;87.00;41.05;;;6.00;99.90;;;;;;5055410;28;20060;-76
2023/01/06 03:36:42;;;;;;;109.25;45.85;;;5.90;99.90;;;;;;5050105;28;20032;-76
2023/01/06 03:39:16;;;;;;;111.40;47.27;;;5.90;99.90;;;;;;5051018;28;20031;-76
2023/01/06 03:44:58;;;;;;;131.32;55.58;;;5.90;99.90;;;;;;5055673;28;20111;-75
2023/01/06 03:47:32;;;;;;;127.35;52.40;;;6.00;99.90;;;;;;5051371;28;20024;-75
2023/01/06 03:50:16;;;;;;;111.32;48.55;;;5.90;99.90;;;;;;5055381;28;20036;-76
2023/01/06 03:52:48;;;;;;;126.72;54.38;;;6.00;99.90;;;;;;5055959;28;20017;-77
2023/01/06 03:55:17;;;;;;;124.88;55.00;;;6.10;99.90;;;;;;5055274;28;20418;-75
2023/01/06 03:57:47;;;;;;;127.45;53.72;;;6.10;99.90;;;;;;5055097;28;20025;-75
2023/01/06 04:00:30;;;;;;;100.45;46.75;;;6.00;99.90;;;;;;5055694;28;20037;-79
2023/01/06 04:02:56;;;;;;;107.18;51.50;;;6.10;99.90;;;;;;5054230;28;20029;-77
2023/01/06 04:05:25;;;;;;;123.65;55.35;;;6.10;99.90;;;;;;5055403;28;20024;-75
2023/01/06 04:07:50;;;;;;;125.07;55.53;;;6.10;99.90;;;;;;5055456;28;20024;-76
2023/01/06 04:10:18;;;;;;;117.95;50.58;;;6.10;99.90;;;;;;5055570;28;20072;-76
2023/01/06 04:12:44;;;;;;;117.60;53.33;;;6.10;99.90;;;;;;5053599;28;20028;-76
2023/01/06 04:15:17;;;;;;;115.18;51.03;;;6.00;99.90;;;;;;5055329;28;20017;-76
2023/01/06 04:17:44;;;;;;;117.68;51.17;;;6.00;99.90;;;;;;5054462;28;20425;-76
2023/01/06 04:20:13;;;;;;;116.97;51.53;;;5.90;99.90;;;;;;5064780;28;20105;-76
2023/01/06 04:22:39;;;;;;;132.15;56.50;;;5.80;99.90;;;;;;5073832;28;20021;-76
2023/01/06 04:25:06;;;;;;;133.88;56.75;;;5.80;99.90;;;;;;5075091;28;20073;-77
2023/01/06 04:27:31;;;;;;;135.02;59.22;;;5.80;99.90;;;;;;5074815;28;20025;-76
2023/01/06 04:29:57;;;;;;;213.05;92.82;;;5.80;99.90;;;;;;5074990;28;20031;-77
2023/01/06 04:32:24;;;;;;;177.40;78.78;;;5.80;99.90;;;;;;5068509;28;20020;-75
2023/01/06 04:34:50;;;;;;;161.23;71.13;;;5.90;99.90;;;;;;5073398;28;20353;-76
2023/01/06 04:37:16;;;;;;;184.43;84.10;;;5.90;99.90;;;;;;5074421;28;20028;-75
2023/01/06 04:39:42;;;;;;;157.23;65.88;;;5.90;99.90;;;;;;5074548;28;20036;-76
2023/01/06 04:42:07;;;;;;;150.00;61.17;;;6.00;99.90;;;;;;5073494;28;20043;-77
2023/01/06 04:44:33;;;;;;;116.57;51.78;;;6.00;99.90;;;;;;5074879;28;20024;-76
2023/01/06 04:46:59;;;;;;;104.10;48.30;;;6.00;99.90;;;;;;5074494;28;20132;-75
2023/01/06 04:49:24;;;;;;;108.72;49.05;;;5.90;99.90;;;;;;5074288;28;20021;-74
2023/01/06 04:51:50;;;;;;;98.93;42.88;;;6.00;99.90;;;;;;5073536;28;20062;-76
2023/01/06 04:54:16;;;;;;;85.18;39.70;;;6.10;99.90;;;;;;5074775;28;20013;-77
2023/01/06 04:56:41;;;;;;;92.63;43.53;;;6.10;99.90;;;;;;5073913;28;20123;-76
2023/01/06 04:59:07;;;;;;;98.43;44.10;;;6.10;99.90;;;;;;5073479;28;20047;-75
2023/01/06 05:01:33;;;;;;;83.10;39.75;;;6.20;99.90;;;;;;5074805;28;20060;-76
2023/01/06 05:03:59;;;;;;;85.55;40.28;;;6.30;99.90;;;;;;5075071;28;20035;-76
2023/01/06 05:06:24;;;;;;;87.00;42.50;;;6.30;99.90;;;;;;5074545;28;20020;-76
2023/01/06 05:08:50;;;;;;;113.15;52.95;;;6.40;99.90;;;;;;5073610;28;20028;-75
2023/01/06 05:11:21;;;;;;;101.82;53.25;;;6.40;99.90;;;;;;5074791;28;20046;-75
2023/01/06 05:13:48;;;;;;;103.78;50.95;;;6.40;99.90;;;;;;5075039;28;20048;-76
2023/01/06 05:16:29;;;;;;;111.25;55.90;;;6.40;99.90;;;;;;5074498;28;20021;-76
2023/01/06 05:18:55;;;;;;;119.05;53.42;;;6.40;99.90;;;;;;5074497;28;20025;-75
2023/01/06 05:21:23;;;;;;;108.38;52.90;;;6.40;99.90;;;;;;5074493;28;20447;-76
2023/01/06 05:23:49;;;;;;;103.75;51.08;;;6.40;99.90;;;;;;5073188;28;20043;-76
2023/01/06 05:26:22;;;;;;;110.20;54.05;;;6.40;99.90;;;;;;5073799;28;20016;-75
2023/01/06 05:28:47;;;;;;;111.15;59.10;;;6.40;99.90;;;;;;5073662;28;20348;-76
2023/01/06 05:31:13;;;;;;;112.18;58.28;;;6.40;99.90;;;;;;5073767;28;20047;-76
2023/01/06 05:33:40;;;;;;;104.68;53.42;;;6.40;99.90;;;;;;5073232;28;20066;-76
2023/01/06 05:36:08;;;;;;;99.75;50.15;;;6.40;99.90;;;;;;5073317;28;20021;-77
2023/01/06 05:38:34;;;;;;;92.22;47.75;;;6.30;99.90;;;;;;5073420;28;20017;-76
2023/01/06 05:41:00;;;;;;;97.78;48.15;;;6.30;99.90;;;;;;5073392;28;20090;-76
2023/01/06 05:43:27;;;;;;;107.13;51.30;;;6.20;99.90;;;;;;5073220;28;20027;-77
2023/01/06 05:45:53;;;;;;;141.60;66.30;;;6.10;99.90;;;;;;5072356;28;20028;-77
2023/01/06 05:48:23;;;;;;;165.20;74.78;;;6.00;99.90;;;;;;5073366;28;20017;-77
2023/01/06 05:50:48;;;;;;;172.10;80.38;;;5.90;99.90;;;;;;5071943;28;20028;-76
2023/01/06 05:53:14;;;;;;;182.30;80.15;;;5.80;99.90;;;;;;5073489;28;20021;-76
2023/01/06 05:55:40;;;;;;;181.40;83.20;;;5.70;99.90;;;;;;5074250;28;20028;-76
2023/01/06 05:58:05;;;;;;;202.15;87.90;;;5.70;99.90;;;;;;5072615;28;20069;-75
2023/01/06 06:00:31;;;;;;;194.50;86.43;;;5.60;99.90;;;;;;5074025;28;20359;-77
2023/01/06 06:02:57;;;;;;;199.35;88.80;;;5.60;99.90;;;;;;5073935;28;20058;-76
2023/01/06 06:05:23;;;;;;;222.00;92.93;;;5.50;99.90;;;;;;5072497;28;20027;-76
2023/01/06 06:07:55;;;;;;;303.90;125.35;;;5.50;99.90;;;;;;5073855;28;20017;-76
2023/01/06 06:10:21;;;;;;;240.32;106.28;;;5.40;99.90;;;;;;5073931;28;20478;-77
2023/01/06 06:12:49;;;;;;;227.80;94.80;;;5.40;99.90;;;;;;5072359;28;20115;-76
2023/01/06 06:15:14;;;;;;;275.48;116.25;;;5.30;99.90;;;;;;5073832;28;20032;-77
2023/01/06 06:17:40;;;;;;;245.32;110.30;;;5.20;99.90;;;;;;5073479;28;20021;-76
2023/01/06 06:20:06;;;;;;;274.48;125.60;;;5.20;99.90;;;;;;5073860;28;20386;-76
2023/01/06 06:22:32;;;;;;;348.15;166.32;;;5.20;99.90;;;;;;5074216;28;20031;-77
2023/01/06 06:24:58;;;;;;;448.70;238.15;;;5.20;99.90;;;;;;5071621;28;20139;-76
2023/01/06 06:27:23;;;;;;;294.67;147.55;;;5.20;99.90;;;;;;5072219;28;20024;-76
2023/01/06 06:29:49;;;;;;;344.10;173.98;;;5.20;99.90;;;;;;5071140;28;20374;-76
2023/01/06 06:32:15;;;;;;;321.23;157.10;;;5.20;99.90;;;;;;5072694;28;20020;-76
2023/01/06 06:34:40;;;;;;;298.55;152.85;;;5.20;99.90;;;;;;5072969;28;20530;-76
2023/01/06 06:37:06;;;;;;;1003.50;518.08;;;5.20;99.90;;;;;;5072626;28;20024;-76
2023/01/06 06:39:32;;;;;;;324.35;170.07;;;5.30;99.90;;;;;;5072477;28;20023;-75
2023/01/06 06:41:57;;;;;;;204.73;101.95;;;5.30;99.90;;;;;;5075609;28;20344;-76
2023/01/06 06:44:23;;;;;;;351.52;167.90;;;5.30;99.90;;;;;;5075571;28;20348;-76
2023/01/06 06:46:49;;;;;;;382.98;191.40;;;5.30;99.90;;;;;;5076772;28;20512;-76
2023/01/06 06:49:14;;;;;;;263.77;132.38;;;5.40;99.90;;;;;;5076604;28;20032;-76
2023/01/06 06:51:40;;;;;;;255.80;135.60;;;5.40;99.90;;;;;;5075650;28;20024;-76
2023/01/06 06:54:06;;;;;;;230.75;124.75;;;5.50;99.90;;;;;;5075105;28;20059;-76
2023/01/06 06:56:32;;;;;;;283.90;154.65;;;5.50;99.90;;;;;;5076914;28;20151;-76
2023/01/06 06:58:57;;;;;;;276.42;149.98;;;5.60;99.90;;;;;;5076622;28;20367;-77
2023/01/06 07:01:23;;;;;;;284.15;156.60;;;5.60;99.90;;;;;;5076446;28;20028;-76
2023/01/06 07:03:49;;;;;;;282.85;153.00;;;5.80;99.90;;;;;;5076554;28;20429;-77
2023/01/06 07:06:23;;;;;;;425.67;223.23;;;5.90;99.90;;;;;;5075363;28;20024;-77
2023/01/06 07:08:49;;;;;;;401.27;219.98;;;6.00;99.90;;;;;;5075015;28;20037;-77
2023/01/06 07:11:15;;;;;;;388.88;213.40;;;6.50;99.90;;;;;;5076178;28;20031;-77
2023/01/06 07:13:41;;;;;;;361.50;189.13;;;6.90;99.90;;;;;;5075831;28;20020;-76
2023/01/06 07:16:07;;;;;;;365.85;194.80;;;6.90;99.90;;;;;;5076393;28;20055;-76
2023/01/06 07:18:33;;;;;;;356.77;194.80;;;6.80;99.90;;;;;;5076022;28;20024;-77
2023/01/06 07:20:59;;;;;;;286.75;149.75;;;6.80;99.90;;;;;;5076167;28;20048;-78
2023/01/06 07:23:24;;;;;;;289.15;146.77;;;6.80;99.90;;;;;;5075621;28;20093;-76
2023/01/06 07:25:54;;;;;;;274.92;140.60;;;6.80;99.90;;;;;;5076151;28;20078;-76
2023/01/06 07:28:21;;;;;;;243.45;128.15;;;6.90;99.90;;;;;;5075412;28;20016;-75
2023/01/06 07:30:47;;;;;;;242.68;126.47;;;7.00;99.90;;;;;;5062286;28;20463;-77
2023/01/06 07:33:13;;;;;;;193.63;99.47;;;7.00;99.90;;;;;;5075964;28;20012;-77
2023/01/06 07:35:39;;;;;;;240.32;129.57;;;7.30;99.90;;;;;;5075299;28;20486;-76
2023/01/06 07:38:06;;;;;;;329.75;178.18;;;7.50;99.90;;;;;;5074714;28;20027;-75
2023/01/06 07:40:32;;;;;;;265.27;131.32;;;7.60;99.90;;;;;;5075664;28;20029;-77
2023/01/06 07:43:01;;;;;;;231.98;121.28;;;7.70;99.90;;;;;;5075500;28;20063;-76
2023/01/06 07:45:27;;;;;;;153.57;84.82;;;7.70;99.90;;;;;;5075355;28;20043;-78
2023/01/06 07:47:55;;;;;;;172.05;80.97;;;8.00;99.90;;;;;;5075845;28;20021;-76
2023/01/06 07:50:20;;;;;;;224.02;100.90;;;8.40;99.90;;;;;;5074087;28;20031;-77
2023/01/06 07:52:46;;;;;;;244.23;110.05;;;8.50;99.90;;;;;;5074367;28;20021;-75
2023/01/06 07:55:12;;;;;;;216.40;103.18;;;8.70;99.90;;;;;;5075699;28;20341;-76
2023/01/06 07:57:38;;;;;;;195.30;100.25;;;8.90;99.90;;;;;;5074856;28;20333;-78
2023/01/06 08:00:04;;;;;;;254.48;139.35;;;9.00;99.90;;;;;;5074171;28;20040;-75
2023/01/06 08:02:30;;;;;;;218.23;126.55;;;9.30;99.90;;;;;;5075623;28;20088;-78
2023/01/06 08:04:55;;;;;;;164.02;95.00;;;9.40;99.90;;;;;;5075532;28;20051;-76
2023/01/06 08:07:21;;;;;;;108.88;64.40;;;9.50;99.90;;;;;;5074629;28;20038;-76
2023/01/06 08:09:47;;;;;;;105.10;52.53;;;9.70;99.90;;;;;;5075627;28;20036;-76
2023/01/06 08:12:12;;;;;;;116.95;59.67;;;9.90;99.90;;;;;;5074749;28;20028;-75
2023/01/06 08:14:38;;;;;;;92.50;48.97;;;10.00;99.90;;;;;;5075608;28;20047;-75
2023/01/06 08:17:04;;;;;;;107.03;49.17;;;10.00;99.90;;;;;;5075930;28;20074;-77
2023/01/06 08:19:30;;;;;;;95.10;44.03;;;10.10;99.90;;;;;;5075869;28;20709;-76
2023/01/06 08:21:55;;;;;;;73.70;37.83;;;10.10;99.90;;;;;;5075192;28;20032;-78
2023/01/06 08:24:21;;;;;;;90.72;44.38;;;10.10;99.90;;;;;;5075162;28;20032;-78
2023/01/06 08:26:47;;;;;;;102.35;55.70;;;10.30;99.90;;;;;;5074772;28;20028;-77
2023/01/06 08:29:12;;;;;;;90.47;52.17;;;10.40;99.90;;;;;;5074202;28;20453;-77
2023/01/06 08:31:38;;;;;;;76.22;40.53;;;10.40;99.90;;;;;;5073375;28;20035;-79
2023/01/06 08:34:04;;;;;;;81.28;41.83;;;10.30;99.90;;;;;;5075919;28;20021;-78
2023/01/06 08:36:30;;;;;;;64.90;33.30;;;10.20;99.90;;;;;;5074522;28;20029;-78
2023/01/06 08:38:56;;;;;;;73.43;40.17;;;10.20;99.90;;;;;;5074730;28;20023;-78
2023/01/06 08:41:22;;;;;;;106.63;56.58;;;10.30;99.90;;;;;;5074420;28;20035;-78
2023/01/06 08:43:48;;;;;;;105.93;60.17;;;10.40;99.90;;;;;;5074593;28;20029;-76
2023/01/06 08:46:16;;;;;;;96.55;56.58;;;10.50;99.90;;;;;;5074177;28;20032;-76
2023/01/06 08:48:42;;;;;;;64.22;37.60;;;10.60;99.90;;;;;;5074793;28;20031;-76
2023/01/06 08:51:15;;;;;;;60.25;34.92;;;10.70;99.90;;;;;;5074009;28;20028;-77
2023/01/06 08:53:42;;;;;;;57.65;34.47;;;10.90;99.90;;;;;;5074421;28;20016;-76
2023/01/06 08:56:18;;;;;;;62.45;36.80;;;11.00;99.90;;;;;;5077558;28;20355;-78
2023/01/06 08:58:44;;;;;;;96.82;46.08;;;11.10;99.90;;;;;;5095226;28;20020;-78
2023/01/06 09:01:18;;;;;;;95.97;50.22;;;11.30;99.90;;;;;;5079878;28;20177;-78
2023/01/06 09:03:43;;;;;;;80.40;42.38;;;11.20;99.90;;;;;;5073792;28;20372;-78
2023/01/06 09:06:09;;;;;;;99.53;48.03;;;11.40;99.90;;;;;;5073311;28;20027;-76
2023/01/06 09:08:36;;;;;;;90.47;43.45;;;11.50;99.90;;;;;;5073848;28;20059;-77
2023/01/06 09:11:10;;;;;;;99.65;42.78;;;11.60;99.90;;;;;;5073627;28;20455;-79
2023/01/06 09:13:36;;;;;;;103.47;45.80;;;11.80;99.90;;;;;;5068107;28;20016;-84
2023/01/06 09:16:07;;;;;;;67.20;32.65;;;11.90;99.90;;;;;;5073041;28;20028;-76
2023/01/06 09:18:33;;;;;;;69.78;35.10;;;12.00;99.90;;;;;;5073589;28;20024;-77
2023/01/06 09:21:00;;;;;;;70.45;38.13;;;12.30;99.90;;;;;;5073239;28;20040;-80
2023/01/06 09:23:26;;;;;;;65.57;35.10;;;12.20;99.90;;;;;;5072745;28;20024;-78
2023/01/06 09:25:54;;;;;;;61.42;33.63;;;12.30;99.90;;;;;;5073355;28;20140;-79
2023/01/06 09:28:20;;;;;;;53.42;28.63;;;12.30;99.90;;;;;;5073686;28;20467;-78
2023/01/06 09:30:47;;;;;;;54.10;29.65;;;12.40;99.90;;;;;;5074829;28;20020;-77
2023/01/06 09:33:14;;;;;;;52.22;22.77;;;12.60;99.90;;;;;;5073278;28;20071;-77
2023/01/06 09:35:39;;;;;;;79.30;33.70;;;12.30;99.90;;;;;;5073603;28;20035;-77
2023/01/06 09:38:05;;;;;;;82.57;34.45;;;12.60;99.90;;;;;;5073859;28;20359;-78
2023/01/06 09:40:57;;;;;;;112.40;52.60;;;12.80;99.90;;;;;;5072255;28;20147;-78
2023/01/06 09:43:29;;;;;;;64.45;28.63;;;13.20;99.90;;;;;;5073686;28;20443;-79
2023/01/06 09:46:00;;;;;;;108.28;43.78;;;13.10;99.90;;;;;;5073250;28;20016;-79
2023/01/06 09:48:32;;;;;;;79.10;37.15;;;13.00;99.90;;;;;;5072279;28;20111;-79
2023/01/06 09:51:02;;;;;;;;;;;12.90;99.90;;;;;;5073700;28;20052;-77
2023/01/06 09:53:35;;;;;;;218.90;80.20;;;12.90;99.90;;;;;;5072495;28;19912;-78
2023/01/06 09:56:06;;;;;;;46.80;24.25;;;13.00;99.90;;;;;;5073569;28;20024;-77
2023/01/06 09:59:03;;;;;;;43.90;23.03;;;13.70;99.10;;;;;;5073844;28;20455;-77
2023/01/06 10:01:39;;;;;;;73.70;35.35;;;13.80;96.50;;;;;;5072950;28;20412;-77
2023/01/06 10:04:05;;;;;;;47.10;25.45;;;13.50;94.90;;;;;;5073094;28;20028;-77
2023/01/06 10:06:44;;;;;;;44.28;22.77;;;13.90;96.40;;;;;;5072684;28;20024;-78
2023/01/06 10:09:28;;;;;;;36.92;21.08;;;14.00;93.00;;;;;;5072897;28;20032;-77
2023/01/06 10:11:53;;;;;;;46.35;26.30;;;13.60;93.90;;;;;;5071921;28;20086;-78
2023/01/06 10:14:28;;;;;;;35.65;19.35;;;13.20;94.10;;;;;;5071450;28;20024;-77
2023/01/06 10:17:21;;;;;;;44.03;23.05;;;13.10;95.00;;;;;;5071245;28;20032;-77
2023/01/06 10:20:07;;;;;;;45.03;23.67;;;13.10;96.00;;;;;;5072824;28;20041;-78
2023/01/06 10:22:52;;;;;;;49.50;23.67;;;12.90;94.70;;;;;;5072463;28;20017;-76
2023/01/06 10:25:26;;;;;;;51.45;27.77;;;13.40;95.00;;;;;;5073141;28;20024;-78
2023/01/06 10:28:17;;;;;;;53.75;27.83;;;13.40;94.70;;;;;;5072847;28;20023;-75
2023/01/06 10:30:46;;;;;;;36.67;19.00;;;13.90;95.50;;;;;;5067487;28;20056;-78
2023/01/06 10:33:36;;;;;;;46.30;24.00;;;14.70;92.50;;;;;;5073388;28;20444;-79
2023/01/06 10:36:02;;;;;;;42.08;22.42;;;14.90;90.40;;;;;;5073336;28;20023;-77
2023/01/06 10:38:42;;;;;;;33.25;18.23;;;14.90;90.70;;;;;;5072157;28;20020;-76
2023/01/06 10:41:41;;;;;;;42.30;21.45;;;15.20;89.10;;;;;;5072352;28;20090;-77
2023/01/06 10:44:10;;;;;;;31.08;18.92;;;15.90;84.60;;;;;;5038606;28;20111;-77
2023/01/06 10:46:37;;;;;;;41.35;22.48;;;16.50;82.10;;;;;;5072782;28;20047;-78
2023/01/06 10:49:05;;;;;;;37.65;19.30;;;16.90;78.80;;;;;;5072188;28;20024;-77
2023/01/06 10:51:36;;;;;;;36.42;19.45;;;16.70;77.80;;;;;;5072064;28;20021;-77
2023/01/06 10:54:26;;;;;;;36.63;20.50;;;17.00;74.50;;;;;;5073622;28;20452;-77
2023/01/06 10:56:57;;;;;;;45.47;21.60;;;17.20;73.60;;;;;;5073736;28;20451;-77
2023/01/06 10:59:23;;;;;;;32.03;16.75;;;17.60;72.10;;;;;;5072117;28;20027;-78
2023/01/06 11:01:55;;;;;;;44.55;24.30;;;17.90;69.40;;;;;;5073053;28;20036;-78
2023/01/06 11:04:23;;;;;;;27.23;16.10;;;18.30;67.60;;;;;;5073010;28;20085;-77
2023/01/06 11:06:57;;;;;;;40.10;22.73;;;18.40;65.30;;;;;;5073233;28;20021;-78
2023/01/06 11:09:37;;;;;;;41.63;21.80;;;18.30;65.70;;;;;;5072026;28;20052;-77
2023/01/06 11:12:12;;;;;;;30.45;15.18;;;18.60;63.40;;;;;;5073143;28;20013;-80
2023/01/06 11:14:39;;;;;;;34.15;17.70;;;18.30;62.40;;;;;;5073353;28;20020;-76
2023/01/06 11:17:13;;;;;;;35.15;16.45;;;18.60;63.20;;;;;;5073502;28;20013;-77
2023/01/06 11:19:44;;;;;;;25.80;14.82;;;18.30;60.50;;;;;;5072724;28;20097;-77
2023/01/06 11:22:35;;;;;;;28.93;15.30;;;17.70;61.40;;;;;;5073124;28;20056;-76
2023/01/06 11:25:02;;;;;;;22.63;12.20;;;18.10;60.60;;;;;;5073218;28;20253;-76
2023/01/06 11:27:28;;;;;;;18.35;10.93;;;18.50;59.50;;;;;;5073224;28;20363;-78
2023/01/06 11:29:54;;;;;;;18.23;10.13;;;18.30;58.80;;;;;;5076514;28;20024;-77
2023/01/06 11:32:26;;;;;;;27.20;13.32;;;18.40;58.50;;;;;;5076864;28;20032;-78
2023/01/06 11:34:57;;;;;;;17.02;9.98;;;18.90;58.20;;;;;;5076851;28;20029;-77
2023/01/06 11:37:35;;;;;;;25.08;11.68;;;19.00;57.60;;;;;;5076928;28;20024;-76
2023/01/06 11:40:28;;;;;;;20.67;12.05;;;19.10;57.00;;;;;;5075244;28;20028;-76
2023/01/06 11:42:58;;;;;;;23.33;11.90;;;18.60;56.90;;;;;;5075448;28;20067;-78
2023/01/06 11:45:56;;;;;;;27.52;14.52;;;18.60;56.90;;;;;;5076567;28;20016;-78
2023/01/06 11:48:30;;;;;;;22.75;11.07;;;18.50;58.10;;;;;;5076377;28;20021;-78
2023/01/06 11:50:59;;;;;;;23.23;12.43;;;18.00;57.30;;;;;;5076732;28;20036;-78
2023/01/06 11:53:25;;;;;;;26.42;13.70;;;17.60;58.30;;;;;;5075142;28;20020;-77
2023/01/06 11:56:17;;;;;;;24.52;13.75;;;17.50;58.20;;;;;;5074993;28;20043;-77
2023/01/06 11:59:08;;;;;;;;;;;16.80;59.80;;;;;;5014813;28;20137;-77
2023/01/06 12:01:51;;;;;;;32.83;16.23;;;16.60;61.10;;;;;;4997645;28;19959;-79
2023/01/06 12:04:37;;;;;;;25.98;13.57;;;16.30;62.60;;;;;;4997660;28;20396;-78
2023/01/06 12:07:16;;;;;;;39.08;19.42;;;15.90;62.30;;;;;;5014304;28;20046;-78
2023/01/06 12:09:44;;;;;;;39.22;19.35;;;15.50;63.70;;;;;;5013951;28;20116;-77
2023/01/06 12:12:13;;;;;;;27.00;14.20;;;15.20;66.30;;;;;;4997444;28;20064;-77
2023/01/06 12:14:39;;;;;;;49.00;25.95;;;15.00;64.80;;;;;;5014079;28;20053;-77
2023/01/06 12:17:17;;;;;;;29.63;17.00;;;14.70;66.40;;;;;;4997025;28;20418;-77
2023/01/06 12:19:58;;;;;;;34.13;15.85;;;14.40;66.70;;;;;;4997083;28;20045;-76
2023/01/06 12:22:44;;;;;;;39.35;20.95;;;14.30;68.00;;;;;;4991158;28;20034;-75
2023/01/06 12:25:24;;;;;;;41.83;20.10;;;14.10;68.20;;;;;;4996464;28;20465;-78
2023/01/06 12:27:52;;;;;;;30.17;15.50;;;14.00;69.20;;;;;;4997139;28;20453;-76
2023/01/06 12:30:59;;;;;;;23.83;11.85;;;13.90;70.00;;;;;;4996938;28;20125;-76
2023/01/06 12:33:24;;;;;;;22.60;10.40;;;13.70;70.70;;;;;;4993428;28;20037;-77
2023/01/06 12:35:54;;;;;;;32.20;16.02;;;13.70;70.10;;;;;;5031130;28;20029;-77
2023/01/06 12:38:54;;;;;;;41.20;19.48;;;13.60;72.20;;;;;;5053753;28;20064;-77
2023/01/06 12:41:30;;;;;;;31.58;16.67;;;13.70;72.30;;;;;;5055388;28;20030;-78
2023/01/06 12:44:22;;;;;;;33.97;14.30;;;13.60;72.50;;;;;;5055250;28;20025;-76
2023/01/06 12:47:14;;;;;;;34.08;15.32;;;13.60;72.90;;;;;;5054345;28;20025;-76
2023/01/06 12:49:47;;;;;;;31.90;15.45;;;13.60;74.10;;;;;;5053031;28;20478;-76
2023/01/06 12:52:27;;;;;;;36.53;17.50;;;13.60;74.00;;;;;;5055034;28;20021;-75